Time;durP1;ratioP1;P1;durP2;ratioP2;P2;SDS_P1;SDS_P2;PMS_P1;PMS_P2;Temp;Humidity;BMP_temperature;BMP_pressure;BME280_temperature;BME280_humidity;BME280_pressure;Samples;Min_cycle;Max_cycle;Signal;HPM_P1;HPM_P2
2024/02/15 00:01:15;;;;;;;12.00;5.60;;;6.00;99.90;;;;;;5051626;28;20199;-84
2024/02/15 00:04:02;;;;;;;19.17;6.87;;;5.80;99.90;;;;;;5052043;28;20194;-84
2024/02/15 00:06:50;;;;;;;10.77;5.93;;;5.90;99.90;;;;;;5052072;28;20221;-84
2024/02/15 00:09:37;;;;;;;13.27;6.27;;;5.90;99.90;;;;;;5051968;28;20537;-84
2024/02/15 00:12:25;;;;;;;14.63;6.60;;;5.90;99.90;;;;;;5051916;28;20228;-84
2024/02/15 00:15:13;;;;;;;14.70;6.47;;;5.90;99.90;;;;;;5038318;28;20724;-84
2024/02/15 00:18:03;;;;;;;12.60;5.80;;;5.90;99.90;;;;;;5046542;28;20243;-84
2024/02/15 00:20:50;;;;;;;13.23;6.13;;;5.80;99.90;;;;;;5031861;28;20188;-84
2024/02/15 00:23:41;;;;;;;13.23;6.07;;;5.80;99.90;;;;;;5017955;28;20197;-84
2024/02/15 00:26:31;;;;;;;12.40;5.57;;;5.80;99.90;;;;;;5031795;28;20275;-84
2024/02/15 00:29:19;;;;;;;14.07;6.13;;;5.70;99.90;;;;;;5016616;28;20202;-84
2024/02/15 00:32:07;;;;;;;11.33;6.10;;;5.70;99.90;;;;;;5031394;28;20196;-83
2024/02/15 00:34:55;;;;;;;11.70;5.77;;;5.70;99.90;;;;;;5030871;28;20259;-84
2024/02/15 00:37:44;;;;;;;13.53;6.13;;;5.70;99.90;;;;;;5018533;28;20215;-83
2024/02/15 00:40:31;;;;;;;13.00;6.20;;;5.70;99.90;;;;;;5030518;28;20196;-84
2024/02/15 00:43:19;;;;;;;13.30;6.47;;;5.70;99.90;;;;;;5030596;28;20213;-83
2024/02/15 00:46:06;;;;;;;14.13;6.17;;;5.80;99.90;;;;;;5018194;28;20680;-83
2024/02/15 00:48:55;;;;;;;13.53;6.40;;;5.80;99.90;;;;;;5032463;28;20386;-84
2024/02/15 00:51:43;;;;;;;12.70;6.37;;;5.80;99.90;;;;;;5033727;28;20200;-84
2024/02/15 00:54:31;;;;;;;13.83;6.03;;;5.80;99.90;;;;;;5034971;28;20198;-84
2024/02/15 00:57:18;;;;;;;12.47;6.07;;;5.80;99.90;;;;;;5035646;28;20258;-83
2024/02/15 01:00:09;;;;;;;14.07;6.50;;;5.80;99.90;;;;;;5034862;28;20217;-84
2024/02/15 01:03:00;;;;;;;11.80;6.13;;;5.80;99.90;;;;;;5035044;28;20201;-83
2024/02/15 01:05:47;;;;;;;12.13;5.83;;;5.70;99.90;;;;;;5035847;28;20206;-84
2024/02/15 01:08:36;;;;;;;13.00;6.43;;;5.70;99.90;;;;;;5035286;28;20199;-84
2024/02/15 01:11:25;;;;;;;12.90;6.27;;;5.70;99.90;;;;;;5034918;28;20276;-84
2024/02/15 01:14:13;;;;;;;14.07;5.97;;;5.80;99.90;;;;;;5034748;28;20677;-83
2024/02/15 01:17:00;;;;;;;11.17;6.37;;;5.70;99.90;;;;;;5035226;28;20202;-83
2024/02/15 01:19:47;;;;;;;11.80;5.73;;;5.80;99.90;;;;;;5034201;28;20216;-83
2024/02/15 01:22:35;;;;;;;13.10;6.10;;;5.80;99.90;;;;;;5021099;28;20193;-83
2024/02/15 01:25:22;;;;;;;15.10;6.53;;;5.70;99.90;;;;;;5034986;28;20219;-83
2024/02/15 01:28:11;;;;;;;11.60;6.27;;;5.70;99.90;;;;;;5034983;28;20233;-83
2024/02/15 01:30:58;;;;;;;12.33;6.27;;;5.70;99.90;;;;;;5034908;28;20196;-84
2024/02/15 01:33:46;;;;;;;14.53;6.63;;;5.80;99.90;;;;;;5019904;28;20652;-84
2024/02/15 01:36:33;;;;;;;13.77;6.60;;;5.80;99.90;;;;;;5033977;28;20286;-83
2024/02/15 01:39:21;;;;;;;14.57;6.33;;;5.70;99.90;;;;;;5020754;28;20275;-84
2024/02/15 01:42:08;;;;;;;13.97;6.20;;;5.70;99.90;;;;;;5033679;28;20215;-84
2024/02/15 01:44:56;;;;;;;12.50;6.37;;;5.70;99.90;;;;;;5034938;28;20192;-84
2024/02/15 01:47:44;;;;;;;11.90;6.30;;;5.70;99.90;;;;;;5034658;28;20682;-84
2024/02/15 01:50:34;;;;;;;12.50;6.37;;;5.80;99.90;;;;;;5034456;28;20189;-84
2024/02/15 01:53:21;;;;;;;13.47;7.00;;;5.80;99.90;;;;;;5020896;28;20201;-84
2024/02/15 01:56:13;;;;;;;12.43;6.23;;;5.90;99.90;;;;;;5034171;28;20201;-83
2024/02/15 01:59:01;;;;;;;14.43;6.43;;;5.90;99.90;;;;;;5020268;28;20237;-84
2024/02/15 02:01:49;;;;;;;13.27;6.83;;;5.80;99.90;;;;;;5033928;28;20206;-84
2024/02/15 02:04:38;;;;;;;15.83;6.80;;;5.90;99.90;;;;;;5034915;28;20229;-82
2024/02/15 02:07:26;;;;;;;12.23;6.80;;;5.80;99.90;;;;;;5019448;28;20229;-83
2024/02/15 02:10:15;;;;;;;12.30;6.30;;;5.80;99.90;;;;;;5034232;28;20197;-84
2024/02/15 02:13:03;;;;;;;13.30;6.37;;;5.70;99.90;;;;;;5032043;28;20308;-84
2024/02/15 02:15:51;;;;;;;15.30;6.43;;;5.80;99.90;;;;;;5031979;28;20190;-83
2024/02/15 02:18:39;;;;;;;12.60;6.23;;;5.80;99.90;;;;;;5033585;28;20232;-83
2024/02/15 02:21:28;;;;;;;12.87;6.30;;;5.80;99.90;;;;;;5033791;28;20671;-84
2024/02/15 02:24:22;;;;;;;16.40;6.77;;;5.80;99.90;;;;;;5033926;28;20199;-83
2024/02/15 02:27:12;;;;;;;13.87;6.20;;;5.80;99.90;;;;;;5032425;28;20228;-83
2024/02/15 02:29:59;;;;;;;15.13;6.67;;;5.80;99.90;;;;;;5033827;28;20191;-83
2024/02/15 02:32:47;;;;;;;16.63;6.97;;;5.80;99.90;;;;;;5019376;28;20216;-83
2024/02/15 02:35:35;;;;;;;14.70;6.80;;;5.80;99.90;;;;;;5033959;28;20254;-84
2024/02/15 02:38:26;;;;;;;14.67;6.80;;;5.80;99.90;;;;;;5032202;28;20287;-83
2024/02/15 02:41:13;;;;;;;14.67;6.73;;;5.70;99.90;;;;;;5034298;28;20200;-83
2024/02/15 02:44:01;;;;;;;12.90;6.23;;;5.70;99.90;;;;;;5033227;28;20213;-84
2024/02/15 02:46:48;;;;;;;12.70;6.50;;;5.80;99.90;;;;;;5033439;28;20227;-84
2024/02/15 02:49:36;;;;;;;13.83;6.47;;;5.80;99.90;;;;;;5033986;28;20213;-83
2024/02/15 02:52:24;;;;;;;14.53;6.70;;;5.80;99.90;;;;;;5033111;28;20207;-83
2024/02/15 02:55:11;;;;;;;15.53;7.00;;;5.80;99.90;;;;;;5033382;28;20198;-83
2024/02/15 02:57:59;;;;;;;13.17;6.60;;;5.80;99.90;;;;;;5032602;28;20290;-84
2024/02/15 03:00:47;;;;;;;16.20;6.77;;;5.80;99.90;;;;;;5020463;28;20647;-83
2024/02/15 03:03:34;;;;;;;12.83;7.00;;;5.80;99.90;;;;;;5033955;28;20194;-84
2024/02/15 03:06:24;;;;;;;15.63;6.80;;;5.80;99.90;;;;;;5032520;28;20647;-83
2024/02/15 03:09:15;;;;;;;12.27;6.90;;;5.80;99.90;;;;;;5019754;28;20224;-84
2024/02/15 03:12:03;;;;;;;15.07;6.37;;;5.90;99.90;;;;;;5019050;28;20241;-84
2024/02/15 03:14:51;;;;;;;17.40;7.07;;;5.90;99.90;;;;;;5032451;28;20238;-84
2024/02/15 03:17:47;;;;;;;12.60;6.80;;;6.00;99.90;;;;;;5018332;28;20216;-84
2024/02/15 03:20:38;;;;;;;13.73;7.03;;;5.90;99.90;;;;;;5017976;28;20277;-84
2024/02/15 03:23:26;;;;;;;18.17;7.00;;;5.80;99.90;;;;;;5033699;28;20199;-83
2024/02/15 03:26:14;;;;;;;14.80;7.55;;;5.90;99.90;;;;;;5032739;28;20202;-84
2024/02/15 03:29:02;;;;;;;17.10;7.27;;;5.90;99.90;;;;;;5032736;28;20219;-83
2024/02/15 03:31:49;;;;;;;15.47;6.73;;;6.00;99.90;;;;;;5032634;28;20204;-83
2024/02/15 03:34:39;;;;;;;16.37;6.93;;;5.90;99.90;;;;;;5032216;28;20574;-84
2024/02/15 03:37:27;;;;;;;17.37;7.40;;;6.00;99.90;;;;;;5031483;28;20199;-84
2024/02/15 03:40:15;;;;;;;14.13;6.70;;;6.00;99.90;;;;;;5032664;28;20209;-84
2024/02/15 03:43:06;;;;;;;14.93;7.30;;;6.00;99.90;;;;;;5032480;28;20221;-83
2024/02/15 03:45:54;;;;;;;13.83;7.20;;;5.90;99.90;;;;;;5032483;28;20221;-84
2024/02/15 03:48:46;;;;;;;15.83;6.83;;;6.00;99.90;;;;;;5032032;28;20328;-84
2024/02/15 03:51:34;;;;;;;14.53;7.10;;;6.00;99.90;;;;;;5032304;28;20197;-83
2024/02/15 03:54:23;;;;;;;14.83;7.47;;;5.90;99.90;;;;;;5017647;28;20555;-83
2024/02/15 03:57:11;;;;;;;13.07;7.20;;;5.80;99.90;;;;;;5034892;28;20254;-83
2024/02/15 03:59:59;;;;;;;15.30;7.23;;;5.80;99.90;;;;;;5020960;28;20244;-83
2024/02/15 04:02:50;;;;;;;15.87;7.53;;;5.90;99.90;;;;;;5034681;28;20202;-82
2024/02/15 04:05:38;;;;;;;17.53;7.40;;;5.80;99.90;;;;;;5035390;28;20195;-82
2024/02/15 04:08:25;;;;;;;13.13;7.27;;;5.70;99.90;;;;;;5035199;28;20224;-83
2024/02/15 04:11:14;;;;;;;15.93;7.40;;;5.70;99.90;;;;;;5032114;28;20611;-83
2024/02/15 04:14:01;;;;;;;14.90;6.77;;;5.70;99.90;;;;;;5016860;28;20219;-83
2024/02/15 04:16:49;;;;;;;14.37;6.93;;;5.60;99.90;;;;;;5032896;28;20333;-83
2024/02/15 04:19:36;;;;;;;13.17;7.00;;;5.60;99.90;;;;;;5032025;28;20295;-83
2024/02/15 04:22:24;;;;;;;15.33;7.07;;;5.60;99.90;;;;;;5031132;28;20677;-83
2024/02/15 04:25:16;;;;;;;10.90;6.47;;;5.70;99.90;;;;;;5031629;28;20198;-83
2024/02/15 04:28:05;;;;;;;13.63;7.07;;;5.70;99.90;;;;;;5030989;28;20224;-83
2024/02/15 04:30:52;;;;;;;13.83;6.80;;;5.70;99.90;;;;;;5030644;28;20197;-83
2024/02/15 04:33:41;;;;;;;14.57;7.17;;;5.70;99.90;;;;;;5031963;28;20201;-83
2024/02/15 04:36:33;;;;;;;13.87;7.00;;;5.70;99.90;;;;;;5031817;28;20226;-83
2024/02/15 04:39:26;;;;;;;13.97;7.17;;;5.70;99.90;;;;;;5030360;28;20246;-84
2024/02/15 04:42:14;;;;;;;15.10;7.47;;;5.60;99.90;;;;;;5032245;28;20216;-83
2024/02/15 04:45:02;;;;;;;14.57;7.63;;;5.50;99.90;;;;;;5032362;28;20211;-83
2024/02/15 04:47:52;;;;;;;14.87;6.83;;;5.60;99.90;;;;;;5030655;28;20228;-83
2024/02/15 04:50:42;;;;;;;14.17;8.00;;;5.50;99.90;;;;;;5031105;28;20203;-84
2024/02/15 04:53:30;;;;;;;15.57;7.63;;;5.50;99.90;;;;;;5031706;28;20668;-83
2024/02/15 04:56:18;;;;;;;13.50;6.80;;;5.50;99.90;;;;;;5029881;28;20308;-84
2024/02/15 04:59:15;;;;;;;26.57;9.17;;;5.60;99.90;;;;;;5017715;28;20199;-83
2024/02/15 05:02:02;;;;;;;16.80;7.30;;;5.70;99.90;;;;;;5031460;28;20572;-84
2024/02/15 05:04:56;;;;;;;14.80;7.17;;;5.60;99.90;;;;;;5031571;28;20300;-84
2024/02/15 05:07:44;;;;;;;14.53;7.30;;;5.50;99.90;;;;;;5031278;28;20204;-84
2024/02/15 05:10:32;;;;;;;15.23;7.07;;;5.60;99.90;;;;;;5031094;28;20214;-84
2024/02/15 05:13:19;;;;;;;13.50;7.10;;;5.50;99.90;;;;;;5018678;28;20253;-83
2024/02/15 05:16:07;;;;;;;15.47;7.20;;;5.50;99.90;;;;;;5031982;28;20206;-85
2024/02/15 05:18:54;;;;;;;16.33;7.50;;;5.60;99.90;;;;;;5031017;28;20262;-84
2024/02/15 05:21:45;;;;;;;16.63;7.63;;;5.60;99.90;;;;;;5031500;28;20238;-85
2024/02/15 05:24:34;;;;;;;14.53;7.30;;;5.60;99.90;;;;;;5029149;28;20265;-85
2024/02/15 05:27:23;;;;;;;12.13;6.57;;;5.60;99.90;;;;;;5031135;28;20217;-84
2024/02/15 05:30:12;;;;;;;14.87;7.10;;;5.70;99.90;;;;;;5031254;28;20201;-85
2024/02/15 05:33:00;;;;;;;15.37;7.27;;;5.70;99.90;;;;;;5030627;28;20201;-85
2024/02/15 05:35:50;;;;;;;16.70;7.13;;;5.60;99.90;;;;;;5032000;28;20301;-85
2024/02/15 05:38:39;;;;;;;16.50;7.77;;;5.60;99.90;;;;;;5033019;28;20206;-85
2024/02/15 05:41:27;;;;;;;13.00;7.10;;;5.50;99.90;;;;;;5021250;28;20201;-85
2024/02/15 05:44:18;;;;;;;16.83;6.80;;;5.60;99.90;;;;;;5035318;28;20283;-85
2024/02/15 05:47:06;;;;;;;14.63;7.43;;;5.60;99.90;;;;;;5034531;28;20244;-85
2024/02/15 05:49:54;;;;;;;13.80;6.93;;;5.70;99.90;;;;;;5033575;28;20226;-85
2024/02/15 05:52:41;;;;;;;14.93;7.23;;;5.70;99.90;;;;;;5034018;28;20331;-84
2024/02/15 05:55:31;;;;;;;14.10;7.17;;;5.80;99.90;;;;;;5034841;28;20199;-84
2024/02/15 05:58:18;;;;;;;14.40;7.30;;;5.70;99.90;;;;;;5034913;28;20212;-85
2024/02/15 06:01:12;;;;;;;16.23;7.47;;;5.70;99.90;;;;;;5035085;28;20725;-85
2024/02/15 06:04:00;;;;;;;16.63;7.70;;;5.70;99.90;;;;;;5020911;28;20196;-85
2024/02/15 06:06:50;;;;;;;15.00;8.10;;;5.60;99.90;;;;;;5019731;28;20199;-84
2024/02/15 06:09:40;;;;;;;16.30;8.17;;;5.50;99.90;;;;;;5034153;28;20250;-84
2024/02/15 06:12:27;;;;;;;15.57;8.53;;;5.50;99.90;;;;;;5034685;28;20292;-85
2024/02/15 06:15:15;;;;;;;19.17;8.57;;;5.50;99.90;;;;;;5033687;28;20200;-84
2024/02/15 06:18:08;;;;;;;18.43;8.87;;;5.40;99.90;;;;;;5020798;28;20238;-85
2024/02/15 06:20:59;;;;;;;21.00;10.37;;;5.40;99.90;;;;;;5032839;28;20275;-86
2024/02/15 06:23:50;;;;;;;23.73;9.97;;;5.50;99.90;;;;;;5019493;28;20398;-85
2024/02/15 06:26:37;;;;;;;19.33;9.70;;;5.50;99.90;;;;;;5033729;28;20261;-86
2024/02/15 06:41:50;;;;;;;22.90;11.50;;;5.40;99.90;;;;;;5033704;28;20316;-86
2024/02/15 06:44:40;;;;;;;22.57;11.97;;;5.30;99.90;;;;;;5034792;28;20208;-86
2024/02/15 06:47:28;;;;;;;22.77;11.67;;;5.20;99.90;;;;;;5033625;28;20228;-86
2024/02/15 06:50:16;;;;;;;26.00;12.33;;;5.20;99.90;;;;;;5018590;28;20278;-85
2024/02/15 06:53:04;;;;;;;21.70;11.93;;;5.40;99.90;;;;;;5033167;28;20221;-85
2024/02/15 06:55:52;;;;;;;26.27;12.53;;;5.20;99.90;;;;;;5032823;28;20200;-86
2024/02/15 06:58:40;;;;;;;24.43;12.43;;;5.30;99.90;;;;;;5032529;28;20675;-86
2024/02/15 07:01:28;;;;;;;23.97;12.50;;;5.20;99.90;;;;;;5032411;28;20215;-85
2024/02/15 07:04:15;;;;;;;22.07;12.73;;;5.30;99.90;;;;;;5032685;28;20203;-86
2024/02/15 07:07:03;;;;;;;26.70;13.20;;;5.30;99.90;;;;;;5018737;28;20195;-85
2024/02/15 07:09:51;;;;;;;30.47;13.30;;;5.30;99.90;;;;;;5033757;28;20207;-83
2024/02/15 07:12:38;;;;;;;25.10;12.73;;;5.20;99.90;;;;;;5033188;28;20221;-85
2024/02/15 07:15:25;;;;;;;28.13;14.47;;;5.20;99.90;;;;;;5018517;28;20409;-86
2024/02/15 07:18:17;;;;;;;28.10;13.90;;;5.30;99.90;;;;;;5033808;28;20235;-86
2024/02/15 07:21:10;;;;;;;26.33;13.93;;;5.30;99.90;;;;;;5033130;28;20262;-85
2024/02/15 07:23:58;;;;;;;30.00;14.30;;;5.30;99.90;;;;;;5032923;28;20737;-86
2024/02/15 07:26:46;;;;;;;30.20;13.90;;;5.30;99.90;;;;;;5032937;28;20287;-85
2024/02/15 07:29:34;;;;;;;30.33;13.83;;;5.20;99.90;;;;;;5032151;28;20195;-85
2024/02/15 07:32:22;;;;;;;27.57;14.40;;;5.00;99.90;;;;;;5032160;28;20629;-85
2024/02/15 07:35:09;;;;;;;27.07;15.23;;;5.10;99.90;;;;;;5018595;28;20342;-86
2024/02/15 07:37:58;;;;;;;29.43;14.87;;;5.10;99.90;;;;;;5032698;28;20202;-85
2024/02/15 07:40:46;;;;;;;29.67;15.07;;;5.10;99.90;;;;;;5031152;28;20208;-85
2024/02/15 07:43:34;;;;;;;29.13;15.40;;;5.20;99.90;;;;;;5018390;28;20694;-85
2024/02/15 07:46:22;;;;;;;33.07;15.77;;;5.20;99.90;;;;;;5031858;28;20653;-85
2024/02/15 07:49:10;;;;;;;33.20;16.47;;;5.30;99.90;;;;;;5032274;28;20689;-85
2024/02/15 07:51:58;;;;;;;30.50;16.80;;;5.30;99.90;;;;;;5031929;28;20192;-86
2024/02/15 07:54:46;;;;;;;36.23;17.17;;;5.20;99.90;;;;;;5031624;28;20197;-85
2024/02/15 07:57:34;;;;;;;30.03;16.47;;;5.30;99.90;;;;;;5032280;28;20265;-85
2024/02/15 08:00:23;;;;;;;35.30;17.87;;;5.20;99.90;;;;;;5017656;28;20577;-85
2024/02/15 08:03:12;;;;;;;36.20;18.97;;;5.10;99.90;;;;;;5032401;28;20205;-85
2024/02/15 08:05:59;;;;;;;33.97;17.80;;;5.10;99.90;;;;;;5031535;28;20279;-84
2024/02/15 08:08:47;;;;;;;33.97;17.67;;;5.10;99.90;;;;;;5032145;28;20299;-85
2024/02/15 08:11:35;;;;;;;35.67;18.37;;;5.20;99.90;;;;;;5031254;28;20224;-85
2024/02/15 08:14:23;;;;;;;35.90;17.97;;;5.20;99.90;;;;;;5018240;28;20192;-85
2024/02/15 08:17:12;;;;;;;36.40;18.20;;;5.30;99.90;;;;;;5016896;28;20211;-85
2024/02/15 08:19:59;;;;;;;33.53;18.93;;;5.30;99.90;;;;;;5032930;28;20234;-85
2024/02/15 08:22:48;;;;;;;38.87;19.13;;;5.30;99.90;;;;;;5032223;28;20212;-84
2024/02/15 08:25:40;;;;;;;35.27;20.03;;;5.20;99.90;;;;;;5030823;28;20288;-85
2024/02/15 08:28:28;;;;;;;41.13;20.37;;;5.10;99.90;;;;;;5030480;28;20233;-84
2024/02/15 08:31:15;;;;;;;37.10;20.03;;;5.30;99.90;;;;;;5031258;28;20248;-85
2024/02/15 08:34:05;;;;;;;43.53;20.37;;;5.40;99.90;;;;;;5031821;28;20220;-84
2024/02/15 08:36:53;;;;;;;37.47;19.27;;;5.40;99.90;;;;;;5017899;28;20228;-84
2024/02/15 08:39:44;;;;;;;45.10;20.87;;;5.30;99.90;;;;;;5031343;28;20574;-84
2024/02/15 08:42:32;;;;;;;42.17;21.47;;;5.40;99.90;;;;;;5030743;28;20228;-84
2024/02/15 08:45:19;;;;;;;41.17;19.93;;;5.40;99.90;;;;;;5031088;28;20189;-85
2024/02/15 08:48:08;;;;;;;37.07;20.60;;;5.40;99.90;;;;;;5031113;28;20365;-85
2024/02/15 08:50:56;;;;;;;41.13;20.83;;;5.50;99.90;;;;;;5031486;28;20211;-84
2024/02/15 08:53:44;;;;;;;39.10;19.97;;;5.60;99.90;;;;;;5032189;28;20545;-84
2024/02/15 08:56:33;;;;;;;43.43;21.63;;;5.50;99.90;;;;;;5017892;28;20336;-85
2024/02/15 08:59:21;;;;;;;42.53;20.57;;;5.60;99.90;;;;;;5030768;28;20200;-84
2024/02/15 09:02:08;;;;;;;42.47;21.27;;;5.60;99.90;;;;;;5032140;28;20283;-85
2024/02/15 09:04:55;;;;;;;46.80;21.37;;;5.60;99.90;;;;;;5017571;28;20278;-84
2024/02/15 09:07:47;;;;;;;44.23;21.43;;;5.60;99.90;;;;;;5031468;28;20191;-84
2024/02/15 09:10:36;;;;;;;43.53;20.97;;;5.60;99.90;;;;;;5030618;28;20196;-84
2024/02/15 09:13:24;;;;;;;42.47;20.93;;;5.70;99.90;;;;;;5034153;28;20353;-84
2024/02/15 09:16:11;;;;;;;43.53;21.97;;;5.80;99.90;;;;;;5035017;28;20206;-83
2024/02/15 09:19:00;;;;;;;43.03;21.93;;;5.90;99.90;;;;;;5035135;28;20322;-82
2024/02/15 09:21:48;;;;;;;44.33;20.93;;;6.00;99.90;;;;;;5021638;28;20202;-82
2024/02/15 09:24:37;;;;;;;43.13;21.10;;;6.00;99.90;;;;;;5035123;28;20225;-81
2024/02/15 09:27:24;;;;;;;43.10;21.30;;;5.90;99.90;;;;;;5033927;28;20225;-84
2024/02/15 09:30:13;;;;;;;44.00;22.17;;;5.90;99.90;;;;;;5035130;28;20196;-84
2024/02/15 09:33:02;;;;;;;40.53;22.00;;;5.90;99.90;;;;;;5036320;28;20199;-83
2024/02/15 09:35:50;;;;;;;44.53;21.73;;;6.10;99.90;;;;;;5035700;28;20205;-85
2024/02/15 09:38:37;;;;;;;42.37;21.70;;;6.10;99.90;;;;;;5034868;28;20660;-86
2024/02/15 09:41:25;;;;;;;43.53;21.43;;;6.10;99.90;;;;;;5034153;28;20197;-80
2024/02/15 09:44:13;;;;;;;45.87;21.83;;;6.10;99.90;;;;;;5035352;28;20663;-76
2024/02/15 09:47:05;;;;;;;44.50;21.33;;;6.10;99.90;;;;;;5035016;28;20196;-78
2024/02/15 09:49:53;;;;;;;45.83;21.03;;;6.10;99.90;;;;;;5035246;28;20303;-78
2024/02/15 09:52:51;;;;;;;40.03;21.03;;;6.10;99.90;;;;;;5033263;28;20203;-77
2024/02/15 09:55:43;;;;;;;43.83;22.43;;;6.10;99.90;;;;;;5035091;28;20187;-77
2024/02/15 09:58:33;;;;;;;43.63;21.97;;;6.20;99.90;;;;;;5034582;28;20210;-76
2024/02/15 10:01:25;;;;;;;41.50;22.23;;;6.20;99.90;;;;;;5033788;28;20197;-77
2024/02/15 10:04:15;;;;;;;41.80;21.83;;;6.30;99.90;;;;;;5033136;28;20196;-75
2024/02/15 10:07:03;;;;;;;48.40;23.77;;;6.30;99.90;;;;;;5034053;28;20195;-77
2024/02/15 10:09:51;;;;;;;40.47;22.40;;;6.30;99.90;;;;;;5034307;28;20224;-76
2024/02/15 10:12:39;;;;;;;40.60;22.13;;;6.40;99.90;;;;;;5034377;28;20225;-77
2024/02/15 10:15:33;;;;;;;47.80;22.77;;;6.40;99.90;;;;;;5020175;28;20221;-76
2024/02/15 10:18:22;;;;;;;45.43;24.13;;;6.40;99.90;;;;;;5027927;28;20264;-77
2024/02/15 10:21:11;;;;;;;42.20;22.17;;;6.40;99.90;;;;;;5053885;28;20555;-77
2024/02/15 10:24:05;;;;;;;42.90;22.67;;;6.50;99.90;;;;;;5051984;28;20189;-77
2024/02/15 10:27:06;;;;;;;46.93;23.37;;;6.40;99.90;;;;;;5053492;28;20212;-77
2024/02/15 10:29:56;;;;;;;43.67;23.10;;;6.30;99.90;;;;;;5053284;28;20212;-76
2024/02/15 10:32:44;;;;;;;46.20;22.93;;;6.40;99.90;;;;;;5053735;28;20190;-77
2024/02/15 10:35:35;;;;;;;47.77;24.53;;;6.50;99.90;;;;;;5053295;28;20209;-78
2024/02/15 10:38:25;;;;;;;44.57;23.47;;;6.50;99.90;;;;;;5054164;28;20195;-79
2024/02/15 10:41:15;;;;;;;46.97;24.33;;;6.50;99.90;;;;;;5054666;28;20557;-79
2024/02/15 10:44:03;;;;;;;45.03;23.67;;;6.50;99.90;;;;;;5038923;28;20271;-79
2024/02/15 10:46:52;;;;;;;47.33;23.47;;;6.40;99.90;;;;;;5054248;28;20640;-78
2024/02/15 10:49:40;;;;;;;48.13;24.83;;;6.40;99.90;;;;;;5052227;28;20217;-78
2024/02/15 10:52:32;;;;;;;44.60;24.60;;;6.40;99.90;;;;;;5053596;28;20576;-78
2024/02/15 10:55:42;;;;;;;45.63;24.77;;;6.50;99.90;;;;;;5053965;28;20193;-78
2024/02/15 10:58:38;;;;;;;47.90;24.93;;;6.60;99.90;;;;;;5052210;28;20276;-78
2024/02/15 11:01:27;;;;;;;50.77;25.63;;;6.80;99.90;;;;;;5051982;28;20201;-78
2024/02/15 11:04:17;;;;;;;51.73;25.80;;;6.80;99.90;;;;;;5039926;28;20284;-78
2024/02/15 11:07:06;;;;;;;50.93;26.27;;;6.90;99.90;;;;;;5053617;28;20552;-77
2024/02/15 11:09:57;;;;;;;51.67;25.37;;;6.90;99.90;;;;;;5053085;28;20222;-77
2024/02/15 11:12:45;;;;;;;46.97;25.27;;;7.10;99.90;;;;;;5052525;28;20633;-77
2024/02/15 11:15:41;;;;;;;42.73;24.17;;;7.20;99.90;;;;;;5052568;28;20821;-77
2024/02/15 11:18:48;;;;;;;47.53;25.27;;;7.20;99.90;;;;;;5043464;28;20234;-78
2024/02/15 11:22:03;;;;;;;47.40;25.13;;;7.20;99.90;;;;;;5032957;28;20213;-77
2024/02/15 11:24:52;;;;;;;51.93;25.67;;;7.10;99.90;;;;;;5032329;28;20269;-77
2024/02/15 11:27:41;;;;;;;50.37;25.50;;;7.20;99.90;;;;;;5032763;28;20310;-77
2024/02/15 11:30:34;;;;;;;50.10;25.30;;;7.30;99.90;;;;;;5032817;28;20229;-77
2024/02/15 11:33:30;;;;;;;48.40;25.77;;;7.40;99.90;;;;;;5018577;28;20211;-76
2024/02/15 11:36:31;;;;;;;45.17;24.83;;;7.60;99.90;;;;;;5031289;28;20207;-77
2024/02/15 11:39:42;;;;;;;50.93;25.47;;;7.60;99.90;;;;;;5032773;28;20322;-77
2024/02/15 11:42:29;;;;;;;49.00;26.70;;;7.80;99.90;;;;;;5032468;28;20215;-76
2024/02/15 11:45:20;;;;;;;45.27;24.20;;;8.00;99.90;;;;;;5032649;28;20196;-75
2024/02/15 11:48:12;;;;;;;43.63;24.47;;;8.10;99.90;;;;;;5030921;28;20229;-77
2024/02/15 11:51:00;;;;;;;47.90;25.17;;;7.90;99.90;;;;;;5032676;28;20198;-78
2024/02/15 11:54:10;;;;;;;46.30;24.00;;;8.00;99.90;;;;;;5032085;28;20280;-77
2024/02/15 11:57:12;;;;;;;45.00;23.83;;;8.20;99.90;;;;;;5018981;28;20227;-78
2024/02/15 12:18:45;;;;;;;44.07;22.50;;;8.40;99.90;;;;;;5031940;28;20285;-77
2024/02/15 12:21:33;;;;;;;47.43;22.33;;;8.50;99.90;;;;;;5031314;28;20207;-77
2024/02/15 12:24:25;;;;;;;48.23;23.57;;;8.50;99.90;;;;;;5031461;28;20570;-77
2024/02/15 12:27:14;;;;;;;40.33;22.27;;;8.60;99.90;;;;;;5017402;28;20254;-78
2024/02/15 12:30:05;;;;;;;44.17;22.77;;;8.80;99.90;;;;;;5032240;28;20736;-77
2024/02/15 12:33:12;;;;;;;40.83;22.37;;;8.90;99.90;;;;;;5031983;28;20203;-77
2024/02/15 12:36:08;;;;;;;41.80;21.37;;;9.00;99.90;;;;;;5018286;28;20582;-77
2024/02/15 12:39:00;;;;;;;44.40;22.40;;;9.10;99.90;;;;;;5018481;28;20708;-77
2024/02/15 12:41:52;;;;;;;42.20;21.30;;;9.20;99.90;;;;;;5030696;28;20227;-76
2024/02/15 12:44:46;;;;;;;39.70;21.50;;;9.30;99.90;;;;;;5030686;28;20207;-77
2024/02/15 12:47:34;;;;;;;43.13;20.63;;;9.30;99.90;;;;;;5034432;28;20278;-77
2024/02/15 12:50:24;;;;;;;37.93;21.53;;;9.40;99.90;;;;;;5021835;28;20253;-77
2024/02/15 12:53:12;;;;;;;40.70;20.63;;;9.40;99.90;;;;;;5034881;28;20196;-77
2024/02/15 12:55:59;;;;;;;39.53;19.77;;;9.40;99.90;;;;;;5035724;28;20191;-77
2024/02/15 12:58:47;;;;;;;38.60;20.90;;;9.40;99.90;;;;;;5035542;28;20196;-76
2024/02/15 13:01:35;;;;;;;40.07;20.43;;;9.50;99.90;;;;;;5036216;28;20191;-77
2024/02/15 13:04:26;;;;;;;32.63;18.77;;;9.50;99.90;;;;;;5021950;28;20229;-77
2024/02/15 13:07:14;;;;;;;38.73;19.57;;;9.40;99.90;;;;;;5021719;28;20241;-77
2024/02/15 13:10:02;;;;;;;33.90;18.37;;;9.30;99.90;;;;;;5035984;28;20215;-77
2024/02/15 13:12:53;;;;;;;37.10;20.87;;;9.30;99.90;;;;;;5022184;28;20215;-77
2024/02/15 13:15:40;;;;;;;35.60;19.40;;;9.40;99.90;;;;;;5035361;28;20199;-77
2024/02/15 13:18:29;;;;;;;33.80;18.83;;;9.50;99.90;;;;;;5035202;28;20234;-78
2024/02/15 13:21:17;;;;;;;35.80;19.23;;;9.60;99.90;;;;;;5035843;28;20693;-76
2024/02/15 13:24:05;;;;;;;37.60;18.80;;;9.60;99.90;;;;;;5021943;28;20198;-77
2024/02/15 13:26:53;;;;;;;34.87;18.40;;;9.80;99.90;;;;;;5034232;28;20223;-76
2024/02/15 13:29:45;;;;;;;33.83;17.83;;;9.90;99.90;;;;;;5035105;28;20699;-77
2024/02/15 13:32:32;;;;;;;35.03;18.13;;;10.00;99.90;;;;;;5034833;28;20548;-77
2024/02/15 13:35:20;;;;;;;32.40;18.27;;;10.10;99.90;;;;;;5034960;28;20647;-77
2024/02/15 13:38:14;;;;;;;35.20;18.73;;;10.10;99.90;;;;;;5034750;28;20548;-77
2024/02/15 13:41:03;;;;;;;37.57;18.47;;;10.10;99.90;;;;;;5034756;28;20196;-77
2024/02/15 13:43:51;;;;;;;33.30;18.33;;;10.00;99.90;;;;;;5020240;28;20199;-77
2024/02/15 13:46:39;;;;;;;33.93;17.73;;;10.00;99.90;;;;;;5034679;28;20198;-78
2024/02/15 13:49:26;;;;;;;34.20;17.73;;;10.00;99.90;;;;;;5034609;28;20249;-78
2024/02/15 13:52:19;;;;;;;32.20;17.83;;;10.00;99.90;;;;;;5034465;28;20608;-78
2024/02/15 13:55:08;;;;;;;33.40;18.40;;;10.00;99.90;;;;;;5033887;28;20199;-78
2024/02/15 13:57:59;;;;;;;36.43;18.23;;;9.90;99.90;;;;;;5032815;28;20226;-77
2024/02/15 14:00:48;;;;;;;35.57;17.87;;;10.00;99.90;;;;;;5033021;28;20199;-77
2024/02/15 14:03:36;;;;;;;36.97;17.57;;;10.10;99.90;;;;;;5034346;28;20200;-78
2024/02/15 14:06:23;;;;;;;30.97;16.80;;;10.30;99.90;;;;;;5033579;28;20202;-77
2024/02/15 14:09:12;;;;;;;37.13;17.03;;;10.20;99.90;;;;;;5033088;28;20215;-78
2024/02/15 14:12:01;;;;;;;32.77;17.00;;;10.40;99.90;;;;;;5032663;28;20664;-78
2024/02/15 14:14:49;;;;;;;36.50;16.57;;;10.60;99.90;;;;;;5034722;28;20281;-76
2024/02/15 14:17:37;;;;;;;37.80;16.93;;;10.70;99.90;;;;;;5032967;28;20199;-78
2024/02/15 14:20:25;;;;;;;29.80;16.83;;;10.60;99.90;;;;;;5033769;28;20574;-78
2024/02/15 14:23:15;;;;;;;32.33;16.93;;;10.70;99.90;;;;;;5020949;28;20573;-78
2024/02/15 14:26:06;;;;;;;31.23;16.00;;;10.60;99.90;;;;;;5019656;28;20199;-78
2024/02/15 14:28:54;;;;;;;35.83;16.90;;;10.50;99.90;;;;;;5033334;28;20714;-77
2024/02/15 14:34:49;;;;;;;44.30;17.10;;;10.20;99.90;;;;;;5033941;28;20202;-78
2024/02/15 14:37:40;;;;;;;45.53;17.57;;;10.00;99.90;;;;;;5033697;28;20683;-78
2024/02/15 14:40:28;;;;;;;32.80;16.20;;;10.00;99.90;;;;;;5032840;28;20598;-79
2024/02/15 14:43:32;;;;;;;33.50;16.83;;;9.80;99.90;;;;;;5032100;28;20226;-78
2024/02/15 14:46:20;;;;;;;29.57;16.47;;;9.80;99.90;;;;;;5033102;28;20196;-79
2024/02/15 14:49:08;;;;;;;31.87;16.20;;;9.60;99.90;;;;;;5033549;28;20225;-78
2024/02/15 14:51:55;;;;;;;32.87;16.60;;;9.60;99.90;;;;;;5034063;28;20215;-78
2024/02/15 14:54:43;;;;;;;34.70;17.77;;;9.60;99.90;;;;;;5034155;28;20233;-77
2024/02/15 14:57:32;;;;;;;34.53;17.13;;;9.60;99.90;;;;;;5019450;28;20220;-79
2024/02/15 15:00:23;;;;;;;28.70;16.03;;;9.50;99.90;;;;;;5031832;28;20202;-77
2024/02/15 15:03:14;;;;;;;31.87;16.30;;;9.50;99.90;;;;;;5033302;28;20656;-78
2024/02/15 15:15:20;;;;;;;33.63;17.03;;;9.30;99.90;;;;;;5021954;28;20209;-78
2024/02/15 15:18:11;;;;;;;30.83;16.47;;;9.20;99.90;;;;;;5032914;28;20748;-78